FAB1361 SBYS-SBYS

Flight info

Callsign FAB1361
Flight time 0h 32m
Altitude 3400
Route DCT PIR
Aircraft TUCA/L-SCDE/C

Departure

Time 2026-04-22 00:25
Airport Campo Fontenelle (SBYS)

Arrival

Time 2026-04-22 00:57
Airport Campo Fontenelle (SBYS)
Time Latitude Longitude Altitude Speed Heading
2026-04-22 00:21 -21.97527 -47.34125 1976 ft 0 kts 180°
2026-04-22 00:21 -21.97530 -47.34125 1976 ft 3 kts 180°
2026-04-22 00:22 -21.97630 -47.34128 1977 ft 23 kts 180°
2026-04-22 00:22 -21.97850 -47.34130 1978 ft 37 kts 182°
2026-04-22 00:22 -21.98016 -47.34129 1978 ft 0 kts 180°
2026-04-22 00:23 -21.98019 -47.34129 1978 ft 3 kts 182°
2026-04-22 00:24 -21.98107 -47.34135 1979 ft 22 kts 193°
2026-04-22 00:24 -21.98401 -47.34139 1979 ft 61 kts 179°
2026-04-22 00:24 -21.98920 -47.34134 1979 ft 97 kts 179°
2026-04-22 00:24 -21.99721 -47.34198 2183 ft 125 kts 213°
2026-04-22 00:25 -21.99787 -47.34969 2763 ft 122 kts 287°
2026-04-22 00:25 -21.99203 -47.35846 2674 ft 168 kts 346°
2026-04-22 00:25 -21.98395 -47.35075 3030 ft 170 kts 76°
2026-04-22 00:25 -21.98018 -47.34065 3981 ft 149 kts 69°
2026-04-22 00:26 -21.97659 -47.32927 4301 ft 168 kts 64°
2026-04-22 00:26 -21.97454 -47.33542 3241 ft 217 kts 230°
2026-04-22 00:26 -21.97926 -47.35028 2888 ft 247 kts 298°
2026-04-22 00:26 -21.97776 -47.35239 2761 ft 253 kts 316°
2026-04-22 00:53 -21.97235 -47.35491 2398 ft 268 kts 354°
2026-04-22 00:54 -21.95847 -47.34401 2652 ft 251 kts 69°
2026-04-22 00:54 -21.95929 -47.32704 3261 ft 210 kts 115°
2026-04-22 00:54 -21.96746 -47.31611 4188 ft 175 kts 146°
2026-04-22 00:54 -21.97842 -47.31333 4748 ft 171 kts 198°
2026-04-22 00:55 -21.98580 -47.31840 5601 ft 117 kts 189°
2026-04-22 00:55 -21.98834 -47.31322 4755 ft 200 kts
2026-04-22 00:55 -21.99151 -47.33330 2148 ft 238 kts 108°
2026-04-22 00:56 -21.98173 -47.33177 2049 ft 209 kts 272°
2026-04-22 00:56 -21.98272 -47.34512 2030 ft 196 kts 186°
2026-04-22 00:56 -21.98276 -47.33512 2033 ft 204 kts 23°
2026-04-22 00:56 -21.97943 -47.32507 3224 ft 142 kts 107°
2026-04-22 00:57 -21.98243 -47.32220 1967 ft 0 kts 278°